Time;durP1;ratioP1;P1;durP2;ratioP2;P2;SDS_P1;SDS_P2;PMS_P1;PMS_P2;Temp;Humidity;BMP_temperature;BMP_pressure;BME280_temperature;BME280_humidity;BME280_pressure;Samples;Min_cycle;Max_cycle;Signal;HPM_P1;HPM_P2
2023/11/11 00:02:03;;;;;;;9.70;7.40;;;9.50;99.90;;;;;;5075839;28;20102;-88
2023/11/11 00:04:29;;;;;;;7.30;6.55;;;9.40;99.90;;;;;;5084381;28;20452;-89
2023/11/11 00:06:55;;;;;;;8.38;7.30;;;9.40;99.90;;;;;;5095996;28;20353;-89
2023/11/11 00:09:20;;;;;;;8.18;7.25;;;9.40;99.90;;;;;;5096262;28;20028;-88
2023/11/11 00:11:46;;;;;;;8.38;7.20;;;9.40;99.90;;;;;;5096387;28;20085;-88
2023/11/11 00:14:13;;;;;;;9.18;7.13;;;9.30;99.90;;;;;;5097272;28;20048;-89
2023/11/11 00:16:42;;;;;;;7.10;6.38;;;9.30;99.90;;;;;;5131178;28;20021;-89
2023/11/11 00:19:09;;;;;;;7.63;6.53;;;9.30;99.90;;;;;;5123053;28;20059;-89
2023/11/11 00:21:37;;;;;;;8.32;6.57;;;9.30;99.90;;;;;;5103482;28;20040;-88
2023/11/11 00:24:09;;;;;;;9.27;6.03;;;9.20;99.90;;;;;;5077948;28;20028;-89
2023/11/11 00:26:34;;;;;;;8.02;6.35;;;9.30;99.90;;;;;;5093101;28;20031;-89
2023/11/11 00:29:00;;;;;;;7.25;6.32;;;9.20;99.90;;;;;;5089387;28;20028;-89
2023/11/11 00:31:30;;;;;;;8.68;7.03;;;9.20;99.90;;;;;;5084649;28;20111;-89
2023/11/11 00:33:55;;;;;;;8.93;6.75;;;9.20;99.90;;;;;;5075314;28;20028;-88
2023/11/11 00:36:21;;;;;;;7.82;6.75;;;9.20;99.90;;;;;;5081663;28;20028;-89
2023/11/11 00:38:47;;;;;;;8.27;6.25;;;9.10;99.90;;;;;;5094672;28;20024;-88
2023/11/11 00:41:14;;;;;;;8.95;6.35;;;9.10;99.90;;;;;;5076620;28;20032;-89
2023/11/11 00:43:39;;;;;;;7.45;6.50;;;9.10;99.90;;;;;;5079024;28;20032;-89
2023/11/11 00:46:05;;;;;;;8.85;6.80;;;9.10;99.90;;;;;;5087445;28;20445;-89
2023/11/11 00:48:31;;;;;;;7.10;6.40;;;9.10;99.90;;;;;;5078339;28;20051;-88
2023/11/11 00:50:58;;;;;;;6.82;6.15;;;9.10;99.90;;;;;;5078126;28;20079;-87
2023/11/11 00:53:24;;;;;;;8.10;6.47;;;9.00;99.90;;;;;;5094589;28;20024;-88
2023/11/11 00:55:50;;;;;;;10.77;6.40;;;9.00;99.90;;;;;;5095497;28;20384;-88
2023/11/11 00:58:15;;;;;;;7.20;6.50;;;9.00;99.90;;;;;;5096069;28;20024;-89
2023/11/11 01:00:43;;;;;;;8.07;6.32;;;9.00;99.90;;;;;;5077049;28;20029;-88
2023/11/11 01:03:09;;;;;;;6.95;5.95;;;8.90;99.90;;;;;;5058350;28;20119;-88
2023/11/11 01:05:35;;;;;;;8.07;6.45;;;8.90;99.90;;;;;;5076747;28;20552;-90
2023/11/11 01:08:01;;;;;;;7.68;6.60;;;8.80;99.90;;;;;;5078075;28;20028;-88
2023/11/11 01:10:27;;;;;;;9.05;6.63;;;8.90;99.90;;;;;;5089731;28;20028;-88
2023/11/11 01:12:54;;;;;;;7.25;6.35;;;8.80;99.90;;;;;;5078012;28;20180;-90
2023/11/11 01:15:20;;;;;;;8.75;6.55;;;8.80;99.90;;;;;;5094486;28;20032;-88
2023/11/11 01:17:46;;;;;;;8.45;6.43;;;8.80;99.90;;;;;;5087994;28;20033;-89
2023/11/11 01:20:14;;;;;;;7.20;6.13;;;8.70;99.90;;;;;;5094380;28;20032;-88
2023/11/11 01:22:40;;;;;;;8.82;6.10;;;8.70;99.90;;;;;;5094940;28;20391;-88
2023/11/11 01:25:07;;;;;;;7.03;5.93;;;8.70;99.90;;;;;;5085504;28;20126;-88
2023/11/11 01:27:35;;;;;;;7.32;5.70;;;8.60;99.90;;;;;;5074592;28;20475;-90
2023/11/11 01:30:01;;;;;;;7.40;5.38;;;8.60;99.90;;;;;;5082806;28;20456;-87
2023/11/11 01:32:27;;;;;;;6.40;5.20;;;8.60;99.90;;;;;;5074342;28;20086;-88
2023/11/11 01:34:53;;;;;;;6.28;5.07;;;8.60;99.90;;;;;;5085282;28;20032;-88
2023/11/11 01:37:19;;;;;;;6.72;5.28;;;8.60;99.90;;;;;;5077933;28;20028;-87
2023/11/11 01:39:45;;;;;;;6.43;5.13;;;8.60;99.90;;;;;;5067550;28;20021;-88
2023/11/11 01:42:11;;;;;;;7.03;5.10;;;8.60;99.90;;;;;;5073833;28;20032;-87
2023/11/11 01:44:37;;;;;;;5.80;4.60;;;8.60;99.90;;;;;;5106971;28;20037;-87
2023/11/11 01:47:07;;;;;;;6.43;4.20;;;8.60;99.90;;;;;;5087446;28;20005;-86
2023/11/11 01:49:36;;;;;;;5.75;3.95;;;8.60;99.90;;;;;;5098184;28;20009;-88
2023/11/11 01:52:03;;;;;;;6.53;4.78;;;8.60;99.90;;;;;;5107506;28;20048;-88
2023/11/11 01:54:30;;;;;;;6.28;4.18;;;8.70;99.90;;;;;;5078318;28;20036;-90
2023/11/11 01:56:57;;;;;;;6.05;4.30;;;8.70;99.90;;;;;;5094583;28;20114;-88
2023/11/11 01:59:25;;;;;;;5.82;4.15;;;8.70;99.90;;;;;;5076031;28;20024;-88
2023/11/11 02:01:51;;;;;;;5.03;3.53;;;8.70;99.90;;;;;;5083838;28;20041;-88
2023/11/11 02:04:18;;;;;;;5.20;3.38;;;8.70;99.90;;;;;;5056363;28;20094;-87
2023/11/11 02:06:49;;;;;;;5.30;3.40;;;8.70;99.90;;;;;;5074508;28;20460;-88
2023/11/11 02:09:17;;;;;;;5.20;3.42;;;8.70;99.90;;;;;;5092610;28;20368;-88
2023/11/11 02:11:51;;;;;;;6.90;3.33;;;8.70;99.90;;;;;;5070266;28;20094;-89
2023/11/11 02:14:17;;;;;;;5.55;3.60;;;8.70;99.90;;;;;;5094520;28;20020;-88
2023/11/11 02:16:43;;;;;;;7.63;4.03;;;8.70;99.90;;;;;;5093884;28;20080;-88
2023/11/11 02:19:08;;;;;;;5.78;3.03;;;8.70;99.90;;;;;;5094174;28;20471;-88
2023/11/11 02:21:34;;;;;;;5.15;3.13;;;8.70;99.90;;;;;;5093807;28;20445;-88
2023/11/11 02:24:02;;;;;;;6.35;3.38;;;8.70;99.90;;;;;;5076656;28;20028;-87
2023/11/11 02:26:27;;;;;;;6.25;3.45;;;8.60;99.90;;;;;;5089879;28;20399;-89
2023/11/11 02:28:53;;;;;;;3.97;2.72;;;8.60;99.90;;;;;;5091984;28;20080;-89
2023/11/11 02:31:19;;;;;;;6.82;2.92;;;8.60;99.90;;;;;;5057319;28;20059;-87
2023/11/11 02:33:44;;;;;;;7.75;3.50;;;8.60;99.90;;;;;;5090594;28;20032;-88
2023/11/11 02:36:10;;;;;;;5.55;2.85;;;8.60;99.90;;;;;;5072695;28;20475;-88
2023/11/11 02:38:36;;;;;;;5.68;2.72;;;8.70;99.90;;;;;;5078720;28;20028;-89
2023/11/11 02:41:02;;;;;;;4.88;2.90;;;8.70;99.90;;;;;;5065165;28;20036;-87
2023/11/11 02:43:28;;;;;;;4.38;2.70;;;8.70;99.90;;;;;;5093509;28;20035;-88
2023/11/11 02:45:53;;;;;;;6.25;2.65;;;8.60;99.90;;;;;;5075202;28;20116;-89
2023/11/11 02:48:19;;;;;;;3.42;2.20;;;8.60;99.90;;;;;;5057111;28;20044;-89
2023/11/11 02:50:45;;;;;;;3.50;2.22;;;8.60;99.90;;;;;;5085396;28;20406;-88
2023/11/11 02:53:11;;;;;;;3.65;2.08;;;8.60;99.90;;;;;;5074571;28;20056;-88
2023/11/11 02:55:36;;;;;;;5.72;2.40;;;8.60;99.90;;;;;;5080249;28;20114;-89
2023/11/11 02:58:02;;;;;;;3.25;1.92;;;8.60;99.90;;;;;;5080738;28;20116;-89
2023/11/11 03:00:28;;;;;;;4.07;1.88;;;8.60;99.90;;;;;;5097839;28;20020;-88
2023/11/11 03:02:54;;;;;;;4.10;1.90;;;8.60;99.90;;;;;;5077558;28;20063;-88
2023/11/11 03:05:19;;;;;;;4.85;1.65;;;8.60;99.90;;;;;;5076992;28;20383;-88
2023/11/11 03:07:45;;;;;;;2.13;1.50;;;8.60;99.90;;;;;;5060752;28;20052;-89
2023/11/11 03:10:12;;;;;;;3.58;1.70;;;8.60;99.90;;;;;;5090186;28;20032;-88
2023/11/11 03:12:38;;;;;;;3.25;2.20;;;8.60;99.90;;;;;;5081054;28;20020;-89
2023/11/11 03:15:04;;;;;;;3.03;1.70;;;8.60;99.90;;;;;;5096311;28;20067;-88
2023/11/11 03:17:31;;;;;;;4.30;1.98;;;8.60;99.90;;;;;;5115205;28;20014;-89
2023/11/11 03:19:59;;;;;;;3.05;1.48;;;8.60;99.90;;;;;;5121970;28;20012;-88
2023/11/11 03:22:24;;;;;;;4.25;1.70;;;8.60;99.90;;;;;;5109081;28;20024;-89
2023/11/11 03:24:50;;;;;;;3.78;1.40;;;8.60;99.90;;;;;;5097781;28;20554;-90
2023/11/11 03:27:16;;;;;;;3.00;1.42;;;8.60;99.90;;;;;;5086561;28;20032;-88
2023/11/11 03:29:42;;;;;;;2.95;1.20;;;8.60;99.90;;;;;;5063123;28;20024;-90
2023/11/11 03:32:07;;;;;;;3.13;1.13;;;8.60;99.90;;;;;;5083660;28;20020;-89
2023/11/11 03:34:33;;;;;;;2.05;0.95;;;8.60;99.90;;;;;;5079863;28;20455;-89
2023/11/11 03:36:59;;;;;;;3.10;1.05;;;8.70;99.90;;;;;;5093886;28;20032;-89
2023/11/11 03:39:27;;;;;;;4.50;1.10;;;8.60;99.90;;;;;;5081776;28;20056;-89
2023/11/11 03:41:53;;;;;;;1.83;0.73;;;8.70;99.90;;;;;;5060193;28;20449;-89
2023/11/11 03:44:19;;;;;;;2.70;0.90;;;8.70;99.90;;;;;;5076318;28;20035;-88
2023/11/11 03:46:44;;;;;;;2.53;0.80;;;8.70;99.90;;;;;;5076111;28;20020;-90
2023/11/11 03:49:10;;;;;;;1.08;0.70;;;8.70;99.90;;;;;;5096431;28;20119;-88
2023/11/11 03:51:36;;;;;;;1.98;0.80;;;8.70;99.90;;;;;;5078652;28;20522;-88
2023/11/11 03:54:02;;;;;;;3.25;0.90;;;8.70;99.90;;;;;;5078304;28;20403;-88
2023/11/11 03:56:27;;;;;;;1.75;0.73;;;8.70;99.90;;;;;;5078217;28;20028;-88
2023/11/11 03:58:53;;;;;;;1.10;0.82;;;8.70;99.90;;;;;;5084193;28;20492;-90
2023/11/11 04:01:19;;;;;;;5.40;1.10;;;8.70;99.90;;;;;;5075091;28;20028;-88
2023/11/11 04:03:45;;;;;;;1.50;0.77;;;8.70;99.90;;;;;;5077514;28;20115;-89
2023/11/11 04:06:11;;;;;;;1.85;0.70;;;8.80;99.90;;;;;;5096190;28;20024;-88
2023/11/11 04:08:39;;;;;;;3.00;1.00;;;8.80;99.90;;;;;;5074722;28;20024;-88
2023/11/11 04:11:08;;;;;;;3.17;1.00;;;8.80;99.90;;;;;;5074930;28;20104;-89
2023/11/11 04:13:37;;;;;;;1.92;0.82;;;8.80;99.90;;;;;;5079738;28;20024;-90
2023/11/11 04:16:03;;;;;;;1.73;0.82;;;8.90;99.90;;;;;;5094726;28;20028;-89
2023/11/11 04:18:32;;;;;;;2.25;0.75;;;8.80;99.90;;;;;;5078862;28;20032;-90
2023/11/11 04:20:59;;;;;;;1.20;0.70;;;8.90;99.90;;;;;;5058135;28;20082;-89
2023/11/11 04:23:26;;;;;;;5.05;0.80;;;8.90;99.90;;;;;;5066132;28;20034;-90
2023/11/11 04:25:53;;;;;;;2.33;0.63;;;8.80;99.90;;;;;;5078345;28;20104;-90
2023/11/11 04:28:19;;;;;;;1.95;1.23;;;8.90;99.90;;;;;;5095074;28;20360;-89
2023/11/11 04:30:45;;;;;;;2.25;0.90;;;8.80;99.90;;;;;;5092671;28;20023;-89
2023/11/11 04:33:11;;;;;;;2.58;1.38;;;8.80;99.90;;;;;;5078304;28;20025;-89
2023/11/11 04:35:37;;;;;;;3.55;0.70;;;8.80;99.90;;;;;;5074360;28;20041;-89
2023/11/11 04:38:08;;;;;;;2.15;0.60;;;8.90;99.90;;;;;;5078367;28;20043;-89
2023/11/11 04:40:35;;;;;;;4.70;0.95;;;8.80;99.90;;;;;;5108211;28;20032;-88
2023/11/11 04:43:00;;;;;;;1.35;0.50;;;8.80;99.90;;;;;;5117753;28;20058;-89
2023/11/11 04:45:26;;;;;;;2.58;0.50;;;8.80;99.90;;;;;;5084163;28;20016;-86
2023/11/11 04:47:52;;;;;;;1.88;1.10;;;8.80;99.90;;;;;;5098220;28;20012;-89
2023/11/11 04:50:18;;;;;;;2.55;0.80;;;8.80;99.90;;;;;;5104783;28;20030;-90
2023/11/11 04:52:45;;;;;;;2.65;0.80;;;8.80;99.90;;;;;;5040053;28;1168936;-89
2023/11/11 04:55:11;;;;;;;3.67;0.90;;;8.80;99.90;;;;;;5095893;28;20031;-89
2023/11/11 04:57:37;;;;;;;4.75;1.27;;;8.80;99.90;;;;;;5078687;28;20037;-89
2023/11/11 05:00:06;;;;;;;2.85;0.82;;;8.80;99.90;;;;;;5095278;28;20460;-90
2023/11/11 05:02:32;;;;;;;1.05;0.68;;;8.90;99.90;;;;;;5079070;28;20035;-90
2023/11/11 05:04:58;;;;;;;3.60;0.88;;;8.90;99.90;;;;;;5072653;28;20058;-91
2023/11/11 05:07:23;;;;;;;2.00;0.90;;;8.80;99.90;;;;;;5074912;28;20020;-89
2023/11/11 05:09:49;;;;;;;1.52;0.68;;;8.80;99.90;;;;;;5081092;28;20024;-89
2023/11/11 05:12:16;;;;;;;1.98;0.50;;;8.80;99.90;;;;;;5074802;28;20029;-90
2023/11/11 05:14:41;;;;;;;3.47;0.70;;;8.90;99.90;;;;;;5074665;28;20040;-91
2023/11/11 05:17:09;;;;;;;1.25;0.50;;;8.80;99.90;;;;;;5075010;28;20028;-89
2023/11/11 05:19:35;;;;;;;3.60;1.25;;;8.80;99.90;;;;;;5094270;28;20028;-91
2023/11/11 05:22:02;;;;;;;1.92;0.70;;;8.80;99.90;;;;;;5095784;28;20020;-89
2023/11/11 05:24:29;;;;;;;1.48;0.80;;;8.80;99.90;;;;;;5075828;28;20066;-88
2023/11/11 05:26:55;;;;;;;3.85;1.15;;;8.80;99.90;;;;;;5086591;28;20157;-88
2023/11/11 05:29:21;;;;;;;2.53;0.82;;;8.80;99.90;;;;;;5057448;28;20029;-89
2023/11/11 05:31:47;;;;;;;3.28;1.00;;;8.80;99.90;;;;;;5074934;28;20036;-89
2023/11/11 05:34:13;;;;;;;1.95;0.70;;;8.80;99.90;;;;;;5057826;28;20040;-88
2023/11/11 05:36:38;;;;;;;1.35;0.57;;;8.80;99.90;;;;;;5057549;28;20136;-90
2023/11/11 05:39:06;;;;;;;3.15;1.08;;;8.90;99.90;;;;;;5057605;28;20060;-89
2023/11/11 05:41:33;;;;;;;3.45;0.70;;;8.90;99.90;;;;;;5057759;28;20487;-90
2023/11/11 05:43:58;;;;;;;1.95;0.73;;;8.90;99.90;;;;;;5074044;28;20094;-89
2023/11/11 05:46:24;;;;;;;4.15;1.05;;;8.90;99.90;;;;;;5074256;28;20044;-90
2023/11/11 05:48:50;;;;;;;2.03;0.80;;;8.90;99.90;;;;;;5057058;28;20020;-89
2023/11/11 05:51:17;;;;;;;3.72;1.10;;;8.90;99.90;;;;;;5057252;28;20052;-89
2023/11/11 05:53:43;;;;;;;3.10;0.70;;;8.90;99.90;;;;;;5057581;28;20028;-90
2023/11/11 05:56:08;;;;;;;2.42;0.80;;;9.00;99.90;;;;;;5074901;28;20020;-90
2023/11/11 05:58:35;;;;;;;3.35;0.95;;;9.00;99.90;;;;;;5073908;28;20028;-90
2023/11/11 06:01:02;;;;;;;2.88;1.05;;;9.00;99.90;;;;;;5057261;28;20058;-89
2023/11/11 06:03:30;;;;;;;2.25;0.88;;;9.00;99.90;;;;;;5073996;28;20024;-88
2023/11/11 06:05:56;;;;;;;1.77;1.00;;;8.90;99.90;;;;;;5074204;28;20412;-88
2023/11/11 06:08:21;;;;;;;2.63;0.80;;;8.90;99.90;;;;;;5059937;28;20128;-88
2023/11/11 06:10:48;;;;;;;3.78;1.05;;;8.90;99.90;;;;;;5079930;28;20025;-88
2023/11/11 06:13:14;;;;;;;2.03;0.90;;;8.80;99.90;;;;;;5094854;28;20050;-90
2023/11/11 06:15:39;;;;;;;2.70;0.77;;;8.80;99.90;;;;;;5097504;28;20029;-88
2023/11/11 06:18:06;;;;;;;2.20;0.80;;;8.90;99.90;;;;;;5080371;28;20031;-89
2023/11/11 06:20:32;;;;;;;1.75;0.70;;;8.90;99.90;;;;;;5079413;28;20020;-89
2023/11/11 06:22:58;;;;;;;2.60;0.80;;;8.90;99.90;;;;;;5076530;28;20039;-89
2023/11/11 06:25:24;;;;;;;2.75;0.80;;;8.90;99.90;;;;;;5075587;28;20455;-88
2023/11/11 06:27:53;;;;;;;2.22;0.80;;;8.80;99.90;;;;;;5057332;28;20033;-89
2023/11/11 06:30:20;;;;;;;3.05;0.47;;;8.80;99.90;;;;;;5057008;28;20475;-89
2023/11/11 06:32:52;;;;;;;2.53;0.43;;;8.80;99.90;;;;;;5058143;28;20111;-88
2023/11/11 06:35:18;;;;;;;0.55;0.30;;;8.80;99.90;;;;;;5073810;28;20031;-90
2023/11/11 06:37:45;;;;;;;1.75;0.30;;;8.80;99.90;;;;;;5073296;28;20036;-88
2023/11/11 06:40:12;;;;;;;3.08;0.60;;;8.90;99.90;;;;;;5073585;28;20025;-90
2023/11/11 06:42:38;;;;;;;0.90;0.38;;;8.80;99.90;;;;;;5073270;28;20024;-87
2023/11/11 06:45:05;;;;;;;1.38;0.52;;;8.80;99.90;;;;;;5074148;28;20032;-88
2023/11/11 06:47:31;;;;;;;2.83;0.60;;;8.80;99.90;;;;;;5073621;28;20108;-89
2023/11/11 06:49:57;;;;;;;0.88;0.50;;;8.80;99.90;;;;;;5056636;28;20031;-90
2023/11/11 06:52:23;;;;;;;0.77;0.55;;;8.90;99.90;;;;;;5073347;28;20049;-90
2023/11/11 06:54:48;;;;;;;2.72;0.80;;;8.80;99.90;;;;;;5073290;28;20127;-91
2023/11/11 06:57:14;;;;;;;1.00;0.65;;;8.80;99.90;;;;;;5073248;28;20435;-89
2023/11/11 06:59:43;;;;;;;1.25;0.77;;;8.80;99.90;;;;;;5074354;28;20076;-90
2023/11/11 07:02:12;;;;;;;1.38;0.77;;;8.80;99.90;;;;;;5076626;28;20032;-89
2023/11/11 07:04:40;;;;;;;0.95;0.70;;;8.80;99.90;;;;;;5056942;28;20074;-89
2023/11/11 07:07:07;;;;;;;2.85;0.95;;;8.80;99.90;;;;;;5080440;28;20029;-89
2023/11/11 07:09:39;;;;;;;3.90;1.08;;;8.80;99.90;;;;;;5073601;28;20024;-89
2023/11/11 07:12:05;;;;;;;3.15;0.90;;;8.80;99.90;;;;;;5076694;28;20035;-88
2023/11/11 07:14:31;;;;;;;4.90;1.00;;;8.80;99.90;;;;;;5091072;28;20016;-89
2023/11/11 07:16:56;;;;;;;1.45;1.00;;;8.80;99.90;;;;;;5071066;28;20104;-89
2023/11/11 07:19:22;;;;;;;1.58;0.90;;;8.80;99.90;;;;;;5087396;28;20035;-89
2023/11/11 07:21:48;;;;;;;2.33;1.30;;;8.80;99.90;;;;;;5075353;28;20031;-89
2023/11/11 07:24:14;;;;;;;3.15;0.95;;;8.80;99.90;;;;;;5078192;28;20029;-90
2023/11/11 07:26:41;;;;;;;1.13;0.75;;;8.80;99.90;;;;;;5075519;28;20036;-88
2023/11/11 07:29:07;;;;;;;1.65;0.93;;;8.70;99.90;;;;;;5078248;28;20032;-87
2023/11/11 07:31:33;;;;;;;2.08;0.90;;;8.70;99.90;;;;;;5081244;28;20036;-88
2023/11/11 07:34:00;;;;;;;2.85;1.02;;;8.70;99.90;;;;;;5072816;28;20029;-89
2023/11/11 07:36:26;;;;;;;2.10;0.93;;;8.70;99.90;;;;;;5083477;28;20028;-88
2023/11/11 07:38:52;;;;;;;1.15;0.65;;;8.70;99.90;;;;;;5073596;28;20032;-88
2023/11/11 07:41:20;;;;;;;0.80;0.60;;;8.70;99.90;;;;;;5080508;28;20111;-88
2023/11/11 07:43:48;;;;;;;0.77;0.70;;;8.70;99.90;;;;;;5081501;28;20438;-88
2023/11/11 07:46:18;;;;;;;2.03;0.52;;;8.70;99.90;;;;;;5093003;28;20037;-89
2023/11/11 07:48:44;;;;;;;1.80;0.73;;;8.70;99.90;;;;;;5120839;28;20062;-89
2023/11/11 07:51:10;;;;;;;0.82;0.70;;;8.70;99.90;;;;;;5107315;28;20773;-89
2023/11/11 07:53:36;;;;;;;2.15;0.88;;;8.60;99.90;;;;;;5080084;28;20055;-88
2023/11/11 07:56:02;;;;;;;1.33;0.70;;;8.60;99.90;;;;;;5073854;28;20063;-89
2023/11/11 07:58:28;;;;;;;0.95;0.40;;;8.70;99.90;;;;;;5096420;28;20028;-89
2023/11/11 08:00:56;;;;;;;1.83;0.55;;;8.70;99.90;;;;;;5076038;28;20025;-88
2023/11/11 08:03:24;;;;;;;1.02;0.70;;;8.70;99.90;;;;;;5067995;28;20028;-88
2023/11/11 08:05:50;;;;;;;1.00;0.47;;;8.60;99.90;;;;;;5092695;28;20111;-88
2023/11/11 08:08:16;;;;;;;1.23;0.60;;;8.60;99.90;;;;;;5090269;28;20433;-88
2023/11/11 08:10:42;;;;;;;0.63;0.50;;;8.60;99.90;;;;;;5075542;28;20078;-89
2023/11/11 08:13:08;;;;;;;1.42;0.50;;;8.60;99.90;;;;;;5059098;28;20038;-89
2023/11/11 08:15:34;;;;;;;1.30;0.50;;;8.70;99.90;;;;;;5064643;28;20107;-89
2023/11/11 08:17:59;;;;;;;0.85;0.50;;;8.60;99.90;;;;;;5086077;28;20028;-89
2023/11/11 08:20:25;;;;;;;1.67;0.60;;;8.60;99.90;;;;;;5075857;28;20039;-88
2023/11/11 08:22:51;;;;;;;1.08;0.57;;;8.60;99.90;;;;;;5058548;28;20027;-89
2023/11/11 08:25:19;;;;;;;1.02;0.50;;;8.60;99.90;;;;;;5076886;28;20442;-89
2023/11/11 08:27:45;;;;;;;2.75;0.50;;;8.70;99.90;;;;;;5058841;28;20028;-89
2023/11/11 08:30:11;;;;;;;2.45;0.50;;;8.60;99.90;;;;;;5075073;28;20038;-89
2023/11/11 08:32:42;;;;;;;1.60;0.60;;;8.70;99.90;;;;;;5076298;28;20026;-87
2023/11/11 08:35:15;;;;;;;1.15;0.60;;;8.70;99.90;;;;;;5088885;28;20064;-89
2023/11/11 08:37:45;;;;;;;0.75;0.40;;;8.80;99.90;;;;;;5075080;28;20063;-88
2023/11/11 08:40:11;;;;;;;0.55;0.50;;;8.80;99.90;;;;;;5075112;28;20036;-88
2023/11/11 08:42:39;;;;;;;1.48;0.55;;;8.80;99.90;;;;;;5076766;28;20039;-89
2023/11/11 08:45:10;;;;;;;0.98;0.45;;;8.80;99.90;;;;;;5078857;28;20137;-88
2023/11/11 08:47:37;;;;;;;0.82;0.47;;;8.90;99.90;;;;;;5095534;28;20055;-89
2023/11/11 08:50:06;;;;;;;1.35;0.52;;;8.90;99.90;;;;;;5092533;28;20024;-88
2023/11/11 08:52:33;;;;;;;0.85;0.40;;;9.00;99.90;;;;;;5074733;28;20051;-89
2023/11/11 08:54:59;;;;;;;2.25;0.35;;;9.00;99.90;;;;;;5074972;28;20033;-88
2023/11/11 08:57:25;;;;;;;1.17;0.57;;;9.00;99.90;;;;;;5075285;28;20036;-88
2023/11/11 08:59:51;;;;;;;1.45;0.60;;;9.10;99.90;;;;;;5091936;28;20120;-88
2023/11/11 09:02:17;;;;;;;1.38;0.50;;;9.10;99.90;;;;;;5075238;28;20598;-89
2023/11/11 09:04:43;;;;;;;0.80;0.50;;;9.20;99.90;;;;;;5075226;28;20166;-89
2023/11/11 09:07:08;;;;;;;0.95;0.40;;;9.20;99.90;;;;;;5095126;28;20057;-89
2023/11/11 09:09:34;;;;;;;1.50;0.57;;;9.20;99.90;;;;;;5091144;28;20393;-89
2023/11/11 09:12:01;;;;;;;1.17;0.45;;;9.20;99.90;;;;;;5090136;28;20016;-87
2023/11/11 09:14:33;;;;;;;2.60;0.55;;;9.20;99.90;;;;;;5100158;28;20024;-89
2023/11/11 09:17:02;;;;;;;0.70;0.65;;;9.30;99.90;;;;;;5119705;28;20012;-88
2023/11/11 09:19:28;;;;;;;1.23;0.47;;;9.30;99.90;;;;;;5101863;28;20028;-89
2023/11/11 09:21:54;;;;;;;1.45;0.50;;;9.30;99.90;;;;;;5083020;28;20028;-88
2023/11/11 09:24:20;;;;;;;1.15;0.70;;;9.30;99.90;;;;;;5095157;28;20031;-88
2023/11/11 09:26:46;;;;;;;1.02;0.68;;;9.40;99.90;;;;;;5078008;28;20052;-88
2023/11/11 09:29:15;;;;;;;1.10;0.50;;;9.40;99.90;;;;;;5077730;28;20448;-89
2023/11/11 09:31:43;;;;;;;2.85;0.93;;;9.40;99.90;;;;;;5078379;28;20024;-89
2023/11/11 09:34:12;;;;;;;1.58;0.75;;;9.40;99.90;;;;;;5074330;28;20021;-89
2023/11/11 09:36:41;;;;;;;1.05;0.80;;;9.40;99.90;;;;;;5079481;28;20012;-90
2023/11/11 09:39:08;;;;;;;3.78;1.20;;;9.40;99.90;;;;;;5077561;28;20127;-89
2023/11/11 09:41:35;;;;;;;1.20;1.10;;;9.50;99.90;;;;;;5094567;28;20021;-89
2023/11/11 09:44:00;;;;;;;1.20;1.10;;;9.50;99.90;;;;;;5087662;28;20126;-90
2023/11/11 09:46:31;;;;;;;2.22;1.35;;;9.50;99.90;;;;;;5075624;28;20040;-89
2023/11/11 09:48:58;;;;;;;2.88;1.58;;;9.50;99.90;;;;;;5094137;28;20047;-89
2023/11/11 09:51:26;;;;;;;4.28;1.65;;;9.50;99.90;;;;;;5077407;28;20048;-89
2023/11/11 09:53:54;;;;;;;2.85;1.77;;;9.60;99.90;;;;;;5094005;28;20036;-89
2023/11/11 09:56:23;;;;;;;2.45;1.67;;;9.60;99.90;;;;;;5095925;28;20020;-90
2023/11/11 09:58:52;;;;;;;4.28;2.47;;;9.60;99.90;;;;;;5094070;28;20024;-89
2023/11/11 10:01:18;;;;;;;8.02;2.95;;;9.70;99.90;;;;;;5085499;28;20029;-88
2023/11/11 10:03:44;;;;;;;4.72;2.90;;;9.70;99.90;;;;;;5073762;28;20024;-88
2023/11/11 10:06:12;;;;;;;4.72;2.63;;;9.70;99.90;;;;;;5070960;28;20458;-88
2023/11/11 10:08:38;;;;;;;7.70;3.67;;;9.70;99.90;;;;;;5076848;28;20024;-89
2023/11/11 10:11:05;;;;;;;6.43;2.97;;;9.70;99.90;;;;;;5077019;28;20028;-89
2023/11/11 10:13:32;;;;;;;5.45;3.13;;;9.70;99.90;;;;;;5095404;28;20012;-89
2023/11/11 10:16:14;;;;;;;5.70;3.10;;;9.70;99.90;;;;;;5093589;28;20039;-89
2023/11/11 10:18:40;;;;;;;5.15;2.97;;;9.70;99.90;;;;;;5089785;28;20051;-89
2023/11/11 10:21:09;;;;;;;4.85;2.88;;;9.80;99.90;;;;;;5074450;28;20036;-89
2023/11/11 10:23:36;;;;;;;6.93;3.15;;;9.80;99.90;;;;;;5073185;28;20021;-89
2023/11/11 10:26:03;;;;;;;4.38;2.72;;;9.90;99.90;;;;;;5090906;28;20464;-88
2023/11/11 10:28:30;;;;;;;5.68;2.90;;;9.90;99.90;;;;;;5093951;28;20020;-89
2023/11/11 10:31:09;;;;;;;5.70;2.90;;;9.90;99.90;;;;;;5090988;28;20020;-89
2023/11/11 10:33:36;;;;;;;4.90;2.65;;;9.90;99.90;;;;;;5073472;28;20028;-90
2023/11/11 10:36:02;;;;;;;4.75;2.83;;;9.90;99.90;;;;;;5089205;28;20036;-89
2023/11/11 10:38:28;;;;;;;7.18;3.33;;;9.90;99.90;;;;;;5062244;28;20598;-91
2023/11/11 10:40:54;;;;;;;6.55;2.97;;;9.90;99.90;;;;;;5096745;28;20039;-88
2023/11/11 10:43:20;;;;;;;5.95;3.42;;;9.90;99.90;;;;;;5105032;28;20024;-89
2023/11/11 10:45:47;;;;;;;6.18;3.22;;;9.90;99.90;;;;;;5089039;28;20032;-88
2023/11/11 10:48:14;;;;;;;5.47;3.22;;;10.00;99.90;;;;;;5112405;28;20110;-89
2023/11/11 10:50:40;;;;;;;6.40;2.63;;;10.00;99.90;;;;;;5107106;28;20022;-88
2023/11/11 10:53:07;;;;;;;7.63;2.95;;;10.00;99.90;;;;;;5094028;28;20028;-88
2023/11/11 10:55:34;;;;;;;6.30;2.90;;;10.00;99.90;;;;;;5070603;28;20028;-87
2023/11/11 10:58:00;;;;;;;5.55;2.85;;;10.00;99.90;;;;;;5076380;28;20098;-88
2023/11/11 11:00:26;;;;;;;4.50;3.10;;;10.10;99.90;;;;;;5079514;28;20538;-88
2023/11/11 11:02:54;;;;;;;5.22;2.50;;;10.10;99.90;;;;;;5060073;28;20098;-88
2023/11/11 11:05:25;;;;;;;7.95;2.75;;;10.10;99.90;;;;;;5078506;28;20024;-87
2023/11/11 11:08:02;;;;;;;3.88;2.60;;;10.10;99.90;;;;;;5086982;28;20028;-88
2023/11/11 11:10:45;;;;;;;5.68;2.70;;;10.10;99.90;;;;;;5079154;28;20488;-87
2023/11/11 11:13:13;;;;;;;5.57;2.88;;;10.20;99.90;;;;;;5077494;28;20533;-88
2023/11/11 11:15:40;;;;;;;4.28;2.88;;;10.20;99.90;;;;;;5105166;28;20456;-87
2023/11/11 11:18:11;;;;;;;7.25;2.80;;;10.20;99.90;;;;;;5087650;28;20169;-87
2023/11/11 11:20:40;;;;;;;6.00;2.67;;;10.20;99.90;;;;;;5096363;28;20020;-88
2023/11/11 11:23:07;;;;;;;3.70;2.40;;;10.30;99.90;;;;;;5079962;28;20028;-88
2023/11/11 11:25:37;;;;;;;6.53;2.45;;;10.30;99.90;;;;;;5076572;28;20050;-88
2023/11/11 11:28:14;;;;;;;5.20;2.70;;;10.40;99.90;;;;;;5081952;28;20035;-87
2023/11/11 11:30:47;;;;;;;3.38;2.10;;;10.40;99.90;;;;;;5096734;28;20126;-87
2023/11/11 11:33:16;;;;;;;5.25;2.72;;;10.40;99.90;;;;;;5097459;28;20081;-88
2023/11/11 11:35:50;;;;;;;3.55;1.83;;;10.50;99.90;;;;;;5088023;28;20494;-88
2023/11/11 11:38:24;;;;;;;3.10;1.65;;;10.50;99.90;;;;;;5083182;28;20024;-88
2023/11/11 11:40:52;;;;;;;2.92;1.85;;;10.50;99.90;;;;;;5096425;28;20024;-88
2023/11/11 11:43:29;;;;;;;2.15;1.52;;;10.50;99.90;;;;;;5077333;28;20070;-88
2023/11/11 11:45:57;;;;;;;5.03;1.80;;;10.50;99.90;;;;;;5075887;28;20122;-88
2023/11/11 11:48:26;;;;;;;2.65;1.60;;;10.50;99.90;;;;;;5080747;28;20150;-89
2023/11/11 11:51:03;;;;;;;2.75;1.08;;;10.50;99.90;;;;;;5097072;28;20130;-87
2023/11/11 11:53:29;;;;;;;2.90;1.67;;;10.50;99.90;;;;;;5095868;28;20024;-88
2023/11/11 11:55:54;;;;;;;3.95;1.65;;;10.50;99.90;;;;;;5079122;28;20031;-88
2023/11/11 11:58:21;;;;;;;2.92;1.50;;;10.50;99.90;;;;;;5095897;28;20046;-88
2023/11/11 12:00:47;;;;;;;2.22;1.48;;;10.40;99.90;;;;;;5097677;28;20437;-88
2023/11/11 12:03:14;;;;;;;3.85;1.27;;;10.50;99.90;;;;;;5097147;28;20063;-87
2023/11/11 12:05:39;;;;;;;2.33;1.20;;;10.40;99.90;;;;;;5062740;28;20112;-88
2023/11/11 12:08:05;;;;;;;2.30;1.10;;;10.50;99.90;;;;;;5081762;28;20425;-87
2023/11/11 12:10:47;;;;;;;2.92;1.17;;;10.50;99.90;;;;;;5090681;28;20031;-88
2023/11/11 12:13:13;;;;;;;2.70;0.98;;;10.50;99.90;;;;;;5085123;28;20075;-88
2023/11/11 12:15:49;;;;;;;0.75;0.73;;;10.60;99.90;;;;;;5090848;28;20033;-87
2023/11/11 12:18:15;;;;;;;3.45;1.05;;;10.50;99.90;;;;;;5112398;28;20030;-87
2023/11/11 12:20:42;;;;;;;2.47;1.20;;;10.50;99.90;;;;;;5116439;28;20025;-87
2023/11/11 12:23:11;;;;;;;2.65;1.00;;;10.50;99.90;;;;;;5115553;28;20008;-88
2023/11/11 12:25:43;;;;;;;2.35;1.00;;;10.50;99.90;;;;;;5082744;28;20858;-87
2023/11/11 12:28:09;;;;;;;2.08;1.02;;;10.60;99.90;;;;;;5076346;28;20031;-88
2023/11/11 12:30:35;;;;;;;3.40;1.33;;;10.60;99.90;;;;;;5069024;28;20032;-87
2023/11/11 12:33:02;;;;;;;1.65;1.20;;;10.60;99.90;;;;;;5059140;28;20032;-88
2023/11/11 12:35:29;;;;;;;1.92;1.10;;;10.70;99.90;;;;;;5076759;28;20364;-88
2023/11/11 12:37:54;;;;;;;3.33;1.73;;;10.70;99.90;;;;;;5095510;28;20036;-88
2023/11/11 12:40:33;;;;;;;3.78;1.30;;;10.70;99.90;;;;;;5075090;28;20119;-87
2023/11/11 12:42:59;;;;;;;3.35;1.65;;;10.70;99.90;;;;;;5092300;28;20052;-88
2023/11/11 12:45:25;;;;;;;3.38;1.65;;;10.70;99.90;;;;;;5075909;28;20032;-88
2023/11/11 12:47:54;;;;;;;3.10;1.20;;;10.70;99.90;;;;;;5081354;28;20531;-87
2023/11/11 12:50:32;;;;;;;2.45;1.20;;;10.70;99.90;;;;;;5075061;28;20452;-86
2023/11/11 12:53:07;;;;;;;1.65;1.50;;;10.70;99.90;;;;;;5057584;28;20154;-88
2023/11/11 12:55:33;;;;;;;2.15;1.42;;;10.70;99.90;;;;;;5074489;28;20422;-87